Wales Township, Michigan
Current Conditions -  °F | °C
As of 12:17 PM on Thursday 27 Nov 2014 (Local Time) from KPHN Reporting Station
Overcast Overcast  
Wind Chill: 23°   Ceiling: 2200
Heat Index: 32°   Visibility: 10mi
Dew Point: 23°   Wind: 12mph
Humidity: 69%   Direction: 300°WNW
Pressure: 30.12"   Gusts: 17mph
Location:  42.9446°N, 82.6827°W
Report Text: KPHN 271717Z AUTO 30010G15KT 10SM OVC022 M00/M05 A3012 RMK AO2
Loading
Personal Weather Stations






























Interactive Weather Map New forecast layout! Learn more

10-Day Weather Forecast

Advertisements
Track Severe Weather on mobile